createdAt,value
2019-05-18T00:01:02.071Z,7.42
2019-05-18T00:03:31.269Z,8.40
2019-05-18T00:06:00.462Z,7.67
2019-05-18T00:08:29.870Z,8.83
2019-05-18T00:10:59.241Z,6.85
2019-05-18T00:13:28.757Z,6.25
2019-05-18T00:15:57.904Z,6.15
2019-05-18T00:18:27.070Z,6.62
2019-05-18T00:20:56.347Z,6.90
2019-05-18T00:23:25.886Z,6.17
2019-05-18T00:25:55.358Z,7.97
2019-05-18T00:28:24.595Z,5.75
2019-05-18T00:30:53.765Z,6.97
2019-05-18T00:33:22.944Z,6.87
2019-05-18T00:35:52.422Z,6.33
2019-05-18T00:38:21.607Z,6.30
2019-05-18T00:40:51.235Z,6.67
2019-05-18T00:43:20.405Z,7.55
2019-05-18T00:45:49.778Z,5.85
2019-05-18T00:48:18.966Z,6.45
2019-05-18T00:50:48.179Z,6.37
2019-05-18T00:53:17.385Z,5.70
2019-05-18T00:55:46.578Z,7.03
2019-05-18T00:58:15.825Z,5.85
2019-05-18T01:00:44.969Z,6.62
2019-05-18T01:03:14.251Z,6.15
2019-05-18T01:05:43.713Z,5.62
2019-05-18T01:08:12.839Z,7.58
2019-05-18T01:10:42.854Z,4.45
2019-05-18T01:13:12.107Z,4.47
2019-05-18T01:15:41.378Z,5.50
2019-05-18T01:18:10.717Z,7.00
2019-05-18T01:20:40.402Z,5.87
2019-05-18T01:23:09.628Z,4.83
2019-05-18T01:25:39.783Z,5.10
2019-05-18T01:28:09.262Z,5.28
2019-05-18T01:30:38.420Z,5.97
2019-05-18T01:33:07.918Z,6.22
2019-05-18T01:35:37.113Z,5.80
2019-05-18T01:38:06.288Z,5.35
2019-05-18T01:40:35.813Z,5.75
2019-05-18T01:43:05.344Z,10.93
2019-05-18T01:45:34.550Z,7.55
2019-05-18T01:48:13.413Z,4.70
2019-05-18T01:50:34.794Z,8.20
2019-05-18T01:53:04.760Z,5.05
2019-05-18T01:55:33.905Z,4.92
2019-05-18T01:58:03.344Z,4.85
2019-05-18T02:00:32.734Z,5.42
2019-05-18T02:03:02.170Z,7.03
2019-05-18T02:05:31.301Z,4.00
2019-05-18T02:08:00.436Z,5.53
2019-05-18T02:10:30.091Z,4.05
2019-05-18T02:12:59.189Z,3.87
2019-05-18T02:15:28.403Z,3.77
2019-05-18T02:17:57.663Z,5.22
2019-05-18T02:20:26.754Z,5.03
2019-05-18T02:22:55.919Z,5.28
2019-05-18T02:25:25.133Z,5.10
2019-05-18T02:27:54.352Z,4.72
2019-05-18T02:30:23.686Z,4.42
2019-05-18T02:32:53.428Z,4.87
2019-05-18T02:35:22.858Z,4.50
2019-05-18T02:37:52.122Z,4.20
2019-05-18T02:40:21.279Z,5.03
2019-05-18T02:42:50.909Z,5.25
2019-05-18T02:45:20.182Z,4.65
2019-05-18T02:47:49.311Z,3.83
2019-05-18T02:50:18.493Z,4.17
2019-05-18T02:52:47.594Z,5.08
2019-05-18T02:55:16.754Z,4.25
2019-05-18T02:57:46.161Z,6.97
2019-05-18T03:00:15.584Z,7.05
2019-05-18T03:02:44.714Z,4.83
2019-05-18T03:05:13.955Z,4.30
2019-05-18T03:07:43.109Z,5.37
2019-05-18T03:10:12.468Z,5.15
2019-05-18T03:12:41.774Z,4.45
2019-05-18T03:15:11.007Z,6.25
2019-05-18T03:17:40.182Z,4.83
2019-05-18T03:20:09.396Z,5.15
2019-05-18T03:22:38.528Z,5.58
2019-05-18T03:25:08.034Z,4.58
2019-05-18T03:27:37.382Z,5.42
2019-05-18T03:30:07.347Z,5.75
2019-05-18T03:32:37.219Z,4.47
2019-05-18T03:35:06.698Z,3.90
2019-05-18T03:37:35.878Z,5.33
2019-05-18T03:40:05.229Z,10.18
2019-05-18T03:42:34.394Z,6.53
2019-05-18T03:45:03.560Z,5.03
2019-05-18T03:47:32.904Z,4.03
2019-05-18T03:50:02.177Z,5.67
2019-05-18T03:52:31.657Z,5.08
2019-05-18T03:55:00.971Z,4.10
2019-05-18T03:57:30.111Z,8.55
2019-05-18T03:59:59.223Z,4.12
2019-05-18T04:02:28.617Z,3.67
2019-05-18T04:04:57.714Z,5.08
2019-05-18T04:07:26.871Z,3.50
2019-05-18T04:09:56.322Z,4.00
2019-05-18T04:12:25.574Z,3.95
2019-05-18T04:14:54.804Z,3.75
2019-05-18T04:17:23.941Z,5.67
2019-05-18T04:19:53.081Z,4.05
2019-05-18T04:22:22.240Z,4.15
2019-05-18T04:24:52.399Z,6.03
2019-05-18T04:27:21.732Z,5.58
2019-05-18T04:29:51.162Z,5.10
2019-05-18T04:32:20.269Z,4.45
2019-05-18T04:34:49.841Z,4.33
2019-05-18T04:37:20.030Z,9.35
2019-05-18T04:39:49.310Z,8.75
2019-05-18T04:42:18.531Z,5.45
2019-05-18T04:44:48.740Z,5.17
2019-05-18T04:47:18.252Z,5.97
2019-05-18T04:50:03.839Z,6.08
2019-05-18T04:52:18.251Z,4.78
2019-05-18T04:54:47.398Z,6.85
2019-05-18T04:57:16.637Z,6.97
2019-05-18T04:59:45.818Z,4.42
2019-05-18T05:02:15.029Z,5.15
2019-05-18T05:04:44.266Z,5.15
2019-05-18T05:07:13.853Z,10.35
2019-05-18T05:09:43.134Z,7.75
2019-05-18T05:12:12.279Z,7.50
2019-05-18T05:14:41.468Z,6.05
2019-05-18T05:17:10.742Z,7.72
2019-05-18T05:19:40.219Z,9.90
2019-05-18T05:22:09.713Z,9.53
2019-05-18T05:24:39.938Z,11.57
2019-05-18T05:27:09.364Z,10.65
2019-05-18T05:29:38.508Z,11.93
2019-05-18T05:32:08.357Z,12.55
2019-05-18T05:34:37.573Z,14.03
2019-05-18T05:37:06.667Z,13.95
2019-05-18T05:39:36.484Z,11.90
2019-05-18T05:42:05.624Z,14.70
2019-05-18T05:44:35.633Z,14.47
2019-05-18T05:47:05.193Z,18.60
2019-05-18T05:49:34.480Z,14.20
2019-05-18T05:52:03.711Z,14.03
2019-05-18T05:54:33.568Z,11.83
2019-05-18T05:57:02.785Z,12.05
2019-05-18T05:59:32.863Z,11.53
2019-05-18T06:02:02.283Z,12.53
2019-05-18T06:04:41.620Z,12.23
2019-05-18T06:07:11.741Z,13.48
2019-05-18T06:09:50.186Z,12.70
2019-05-18T06:12:19.382Z,11.60
2019-05-18T06:14:48.590Z,12.37
2019-05-18T06:17:17.813Z,12.07
2019-05-18T06:19:46.927Z,11.22
2019-05-18T06:22:16.163Z,11.63
2019-05-18T06:24:47.140Z,11.53
2019-05-18T06:27:16.345Z,12.18
2019-05-18T06:29:45.463Z,11.88
2019-05-18T06:32:14.767Z,12.20
2019-05-18T06:34:44.531Z,11.12
2019-05-18T06:37:13.685Z,10.53
2019-05-18T06:39:42.887Z,9.90
2019-05-18T06:42:12.239Z,10.32
2019-05-18T06:44:41.431Z,12.30
2019-05-18T06:47:11.075Z,11.35
2019-05-18T06:49:40.353Z,11.53
2019-05-18T06:52:09.631Z,10.88
2019-05-18T06:54:38.771Z,9.20
2019-05-18T06:57:08.643Z,10.20
2019-05-18T06:59:39.112Z,10.08
2019-05-18T07:02:08.293Z,10.48
2019-05-18T07:04:37.609Z,12.82
2019-05-18T07:07:06.889Z,11.73
2019-05-18T07:09:36.676Z,10.95
2019-05-18T07:12:05.918Z,10.13
2019-05-18T07:14:36.860Z,10.03
2019-05-18T07:17:06.723Z,9.68
2019-05-18T07:19:36.111Z,9.48
2019-05-18T07:22:08.217Z,7.58
2019-05-18T07:24:37.429Z,8.90
2019-05-18T07:27:06.730Z,9.65
2019-05-18T07:29:36.046Z,10.20
2019-05-18T07:32:05.250Z,9.65
2019-05-18T07:34:34.503Z,9.43
2019-05-18T07:37:04.191Z,8.58
2019-05-18T07:39:36.074Z,9.75
2019-05-18T07:42:04.820Z,12.60
2019-05-18T07:44:34.098Z,7.85
2019-05-18T07:47:03.676Z,9.25
2019-05-18T07:49:33.387Z,11.28
2019-05-18T07:52:03.352Z,7.87
2019-05-18T07:54:34.623Z,9.08
2019-05-18T07:57:04.324Z,6.65
2019-05-18T07:59:33.811Z,6.28
2019-05-18T08:02:03.432Z,6.78
2019-05-18T08:04:32.690Z,6.60
2019-05-18T08:07:01.970Z,6.15
2019-05-18T08:09:31.195Z,7.35
2019-05-18T08:12:00.426Z,5.50
2019-05-18T08:14:29.831Z,6.30
2019-05-18T08:16:59.135Z,6.40
2019-05-18T08:19:28.616Z,6.70
2019-05-18T08:21:57.872Z,6.55
2019-05-18T08:24:27.391Z,5.97
2019-05-18T08:26:56.848Z,6.22
2019-05-18T08:29:26.459Z,5.90
2019-05-18T08:31:59.386Z,5.95
2019-05-18T08:34:28.980Z,6.20
2019-05-18T08:36:58.111Z,5.78
2019-05-18T08:39:27.373Z,6.03
2019-05-18T08:41:56.973Z,6.08
2019-05-18T08:44:26.334Z,6.50
2019-05-18T08:46:55.537Z,6.65
2019-05-18T08:49:24.937Z,6.35
2019-05-18T08:52:07.539Z,6.20
2019-05-18T08:54:25.130Z,7.50
2019-05-18T08:56:54.397Z,5.12
2019-05-18T08:59:23.497Z,5.42
2019-05-18T09:01:52.737Z,6.10
2019-05-18T09:04:21.992Z,5.67
2019-05-18T09:06:51.506Z,5.30
2019-05-18T09:09:20.946Z,4.53
2019-05-18T09:11:50.088Z,4.70
2019-05-18T09:14:19.345Z,5.20
2019-05-18T09:16:48.777Z,5.92
2019-05-18T09:19:18.874Z,5.03
2019-05-18T09:21:48.580Z,7.25
2019-05-18T09:24:17.765Z,5.08
2019-05-18T09:26:47.041Z,4.83
2019-05-18T09:29:16.532Z,5.78
2019-05-18T09:31:46.445Z,5.40
2019-05-18T09:34:16.033Z,7.28
2019-05-18T09:36:45.271Z,7.10
2019-05-18T09:39:14.809Z,6.75
2019-05-18T09:41:43.983Z,4.95
2019-05-18T09:44:13.419Z,7.30
2019-05-18T09:46:42.693Z,4.65
2019-05-18T09:49:11.853Z,4.42
2019-05-18T09:51:41.046Z,4.42
2019-05-18T09:54:10.227Z,4.47
2019-05-18T09:56:39.354Z,6.05
2019-05-18T09:59:08.551Z,4.20
2019-05-18T10:01:37.881Z,4.10
2019-05-18T10:04:07.710Z,4.10
2019-05-18T10:06:36.817Z,4.10
2019-05-18T10:09:09.732Z,3.45
2019-05-18T10:11:39.060Z,6.37
2019-05-18T10:14:08.721Z,3.30
2019-05-18T10:16:37.934Z,3.75
2019-05-18T10:19:07.090Z,4.10
2019-05-18T10:21:36.458Z,3.27
2019-05-18T10:24:05.973Z,3.62
2019-05-18T10:26:35.239Z,2.70
2019-05-18T10:29:05.007Z,3.75
2019-05-18T10:31:34.208Z,3.92
2019-05-18T10:34:03.623Z,3.75
2019-05-18T10:36:33.144Z,4.25
2019-05-18T10:39:02.685Z,4.12
2019-05-18T10:41:32.188Z,5.78
2019-05-18T10:44:01.306Z,4.67
2019-05-18T10:46:30.455Z,3.50
2019-05-18T10:49:00.342Z,4.28
2019-05-18T10:51:29.622Z,3.47
2019-05-18T10:53:59.258Z,4.92
2019-05-18T10:56:31.173Z,3.92
2019-05-18T10:58:59.824Z,3.58
2019-05-18T11:01:29.005Z,4.05
2019-05-18T11:03:58.226Z,4.90
2019-05-18T11:06:28.288Z,4.85
2019-05-18T11:08:57.603Z,4.28
2019-05-18T11:11:26.909Z,4.45
2019-05-18T11:13:56.209Z,4.03
2019-05-18T11:16:25.451Z,5.47
2019-05-18T11:18:54.644Z,3.87
2019-05-18T11:21:25.615Z,4.74
2019-05-18T11:24:06.480Z,4.83
2019-05-18T11:26:35.721Z,4.33
2019-05-18T11:29:04.848Z,3.70
2019-05-18T11:31:34.154Z,3.77
2019-05-18T11:34:03.998Z,4.83
2019-05-18T11:36:33.514Z,4.53
2019-05-18T11:39:02.782Z,3.95
2019-05-18T11:41:32.292Z,3.55
2019-05-18T11:44:01.574Z,4.17
2019-05-18T11:46:32.238Z,4.72
2019-05-18T11:49:01.451Z,3.90
2019-05-18T11:51:30.651Z,6.15
2019-05-18T11:53:59.859Z,4.70
2019-05-18T11:56:30.169Z,4.80
2019-05-18T11:58:59.318Z,4.28
2019-05-18T12:01:28.643Z,3.90
2019-05-18T12:03:59.375Z,3.85
2019-05-18T12:06:28.781Z,3.45
2019-05-18T12:08:58.716Z,4.03
2019-05-18T12:11:28.017Z,3.40
2019-05-18T12:13:57.704Z,3.58
2019-05-18T12:16:26.895Z,3.77
2019-05-18T12:18:57.662Z,3.10
2019-05-18T12:21:27.489Z,3.77
2019-05-18T12:23:56.723Z,3.55
2019-05-18T12:26:25.931Z,3.27
2019-05-18T12:28:55.575Z,3.17
2019-05-18T12:31:24.879Z,3.25
2019-05-18T12:33:54.129Z,3.30
2019-05-18T12:36:23.353Z,3.45
2019-05-18T12:38:53.026Z,3.92
2019-05-18T12:41:29.900Z,4.53
2019-05-18T12:43:59.889Z,3.52
2019-05-18T12:46:29.229Z,3.77
2019-05-18T12:48:58.809Z,3.08
2019-05-18T12:51:28.029Z,4.12
2019-05-18T12:53:57.362Z,2.70
2019-05-18T12:56:26.638Z,2.75
2019-05-18T12:58:55.855Z,2.70
2019-05-18T13:01:25.403Z,2.33
2019-05-18T13:03:54.957Z,3.83
2019-05-18T13:06:24.264Z,2.83
2019-05-18T13:08:53.493Z,2.85
2019-05-18T13:11:23.026Z,2.60
2019-05-18T13:13:52.281Z,2.47
2019-05-18T13:16:21.454Z,2.25
2019-05-18T13:18:50.715Z,2.83
2019-05-18T13:21:19.968Z,2.50
2019-05-18T13:23:49.514Z,2.10
2019-05-18T13:26:18.647Z,2.45
2019-05-18T13:28:48.957Z,2.77
2019-05-18T13:31:18.317Z,2.40
2019-05-18T13:33:47.633Z,2.37
2019-05-18T13:36:16.841Z,2.15
2019-05-18T13:38:46.067Z,2.47
2019-05-18T13:41:15.536Z,2.27
2019-05-18T13:43:47.015Z,1.65
2019-05-18T13:46:16.955Z,2.05
2019-05-18T13:51:17.201Z,1.87
2019-05-18T13:53:46.343Z,1.90
2019-05-18T13:56:15.543Z,3.98
2019-05-18T13:58:45.078Z,2.27
2019-05-18T14:01:14.215Z,2.12
2019-05-18T14:03:43.681Z,2.20
2019-05-18T14:06:13.883Z,2.60
2019-05-18T14:08:43.129Z,2.65
2019-05-18T14:11:12.297Z,2.33
2019-05-18T14:13:41.456Z,2.08
2019-05-18T14:16:10.646Z,3.05
2019-05-18T14:18:40.184Z,2.75
2019-05-18T14:21:09.455Z,2.27
2019-05-18T14:23:38.876Z,2.92
2019-05-18T14:26:08.045Z,2.40
2019-05-18T14:28:37.268Z,2.35
2019-05-18T14:31:06.535Z,2.47
2019-05-18T14:33:35.865Z,1.92
2019-05-18T14:36:05.664Z,2.67
2019-05-18T14:38:34.837Z,4.17
2019-05-18T14:41:04.289Z,4.35
2019-05-18T14:43:33.531Z,2.12
2019-05-18T14:46:03.143Z,5.03
2019-05-18T14:48:32.737Z,2.33
2019-05-18T14:51:02.002Z,2.02
2019-05-18T14:53:31.133Z,2.70
2019-05-18T14:56:00.280Z,1.87
2019-05-18T14:58:29.540Z,2.45
2019-05-18T15:00:58.784Z,2.10
2019-05-18T15:03:28.246Z,2.67
2019-05-18T15:05:57.500Z,2.45
2019-05-18T15:08:26.822Z,2.00
2019-05-18T15:10:56.050Z,2.45
2019-05-18T15:13:25.387Z,1.65
2019-05-18T15:15:54.669Z,1.90
2019-05-18T15:18:23.844Z,2.83
2019-05-18T15:20:53.376Z,3.35
2019-05-18T15:23:22.671Z,1.90
2019-05-18T15:25:52.019Z,2.50
2019-05-18T15:28:21.609Z,3.65
2019-05-18T15:30:52.279Z,1.82
2019-05-18T15:33:21.704Z,1.85
2019-05-18T15:35:51.190Z,2.20
2019-05-18T15:38:21.114Z,2.25
2019-05-18T15:40:50.646Z,2.00
2019-05-18T15:43:19.930Z,2.77
2019-05-18T15:45:49.367Z,1.90
2019-05-18T15:48:18.667Z,2.65
2019-05-18T15:50:48.013Z,1.72
2019-05-18T15:53:17.426Z,1.52
2019-05-18T15:55:47.070Z,1.90
2019-05-18T15:58:16.359Z,1.75
2019-05-18T16:00:45.666Z,1.62
2019-05-18T16:03:14.959Z,1.95
2019-05-18T16:05:44.591Z,1.60
2019-05-18T16:08:14.041Z,2.40
2019-05-18T16:10:43.306Z,2.10
2019-05-18T16:13:12.637Z,2.17
2019-05-18T16:15:41.988Z,3.52
2019-05-18T16:18:11.148Z,2.55
2019-05-18T16:20:41.390Z,2.37
2019-05-18T16:23:13.451Z,2.27
2019-05-18T16:25:42.904Z,4.30
2019-05-18T16:28:12.452Z,2.25
2019-05-18T16:30:42.313Z,3.65
2019-05-18T16:33:11.587Z,2.08
2019-05-18T16:35:41.931Z,3.15
2019-05-18T16:38:11.492Z,1.47
2019-05-18T16:40:41.299Z,2.85
2019-05-18T16:43:10.502Z,2.42
2019-05-18T16:45:39.843Z,2.25
2019-05-18T16:48:09.005Z,2.30
2019-05-18T16:50:38.173Z,2.37
2019-05-18T16:53:07.379Z,2.27
2019-05-18T16:55:36.604Z,2.45
2019-05-18T16:58:05.842Z,2.10
2019-05-18T17:00:35.105Z,2.47
2019-05-18T17:03:08.453Z,2.05
2019-05-18T17:05:37.993Z,2.10
2019-05-18T17:08:07.181Z,2.55
2019-05-18T17:10:36.393Z,2.22
2019-05-18T17:13:06.279Z,3.42
2019-05-18T17:15:35.507Z,6.30
2019-05-18T17:18:04.678Z,2.10
2019-05-18T17:20:34.057Z,3.40
2019-05-18T17:23:03.592Z,1.70
2019-05-18T17:25:33.036Z,2.30
2019-05-18T17:28:02.471Z,1.87
2019-05-18T17:30:31.757Z,2.05
2019-05-18T17:33:01.010Z,1.85
2019-05-18T17:35:30.542Z,2.77
2019-05-18T17:38:01.316Z,3.00
2019-05-18T17:40:30.525Z,13.25
2019-05-18T17:42:59.744Z,2.87
2019-05-18T17:45:28.957Z,2.95
2019-05-18T17:47:58.110Z,1.70
2019-05-18T17:50:29.108Z,1.70
2019-05-18T17:52:58.450Z,1.90
2019-05-18T17:55:27.743Z,2.00
2019-05-18T17:57:56.969Z,2.12
2019-05-18T18:00:26.115Z,2.22
2019-05-18T18:02:55.483Z,2.40
2019-05-18T18:05:24.772Z,2.30
2019-05-18T18:07:55.650Z,1.70
2019-05-18T18:10:25.068Z,1.92
2019-05-18T18:12:54.451Z,1.62
2019-05-18T18:15:23.945Z,1.82
2019-05-18T18:17:53.281Z,1.98
2019-05-18T18:20:23.528Z,2.17
2019-05-18T18:22:52.655Z,3.12
2019-05-18T18:25:21.946Z,5.10
2019-05-18T18:27:51.172Z,2.40
2019-05-18T18:30:21.235Z,3.77
2019-05-18T18:32:50.506Z,4.20
2019-05-18T18:35:19.860Z,5.30
2019-05-18T18:37:49.127Z,4.35
2019-05-18T18:40:18.704Z,5.08
2019-05-18T18:42:47.963Z,3.40
2019-05-18T18:45:18.690Z,4.22
2019-05-18T18:47:47.903Z,2.80
2019-05-18T18:50:17.186Z,5.47
2019-05-18T18:52:47.545Z,2.85
2019-05-18T18:55:17.195Z,3.08
2019-05-18T18:57:46.543Z,2.85
2019-05-18T19:00:16.769Z,2.98
2019-05-18T19:02:46.115Z,2.95
2019-05-18T19:05:15.985Z,2.20
2019-05-18T19:07:45.285Z,3.12
2019-05-18T19:10:15.549Z,1.70
2019-05-18T19:12:45.036Z,1.80
2019-05-18T19:15:14.972Z,2.75
2019-05-18T19:17:44.698Z,2.35
2019-05-18T19:20:14.957Z,2.42
2019-05-18T19:22:44.526Z,1.82
2019-05-18T19:25:15.492Z,2.17
2019-05-18T19:27:54.627Z,2.37
2019-05-18T19:30:16.505Z,2.15
2019-05-18T19:32:46.283Z,2.05
2019-05-18T19:35:15.706Z,1.50
2019-05-18T19:37:45.454Z,1.72
2019-05-18T19:40:15.023Z,1.62
2019-05-18T19:42:44.371Z,2.58
2019-05-18T19:45:17.408Z,1.62
2019-05-18T19:47:46.755Z,1.77
2019-05-18T19:50:17.178Z,2.83
2019-05-18T19:52:46.713Z,2.52
2019-05-18T19:55:16.688Z,3.00
2019-05-18T19:57:46.734Z,2.05
2019-05-18T20:00:16.868Z,5.62
2019-05-18T20:02:51.401Z,3.08
2019-05-18T20:05:20.984Z,3.35
2019-05-18T20:07:50.487Z,4.95
2019-05-18T20:10:20.139Z,4.00
2019-05-18T20:12:49.400Z,3.15
2019-05-18T20:15:19.282Z,5.95
2019-05-18T20:17:48.512Z,3.50
2019-05-18T20:20:19.253Z,3.30
2019-05-18T20:22:48.803Z,3.72
2019-05-18T20:25:24.503Z,5.25
2019-05-18T20:28:23.329Z,3.55
2019-05-18T20:30:53.693Z,4.67
2019-05-18T20:33:35.831Z,4.08
2019-05-18T20:36:12.671Z,3.72
2019-05-18T20:38:43.508Z,4.62
2019-05-18T20:41:18.181Z,5.03
2019-05-18T20:46:23.468Z,4.17
2019-05-18T20:48:54.922Z,5.23
2019-05-18T20:51:24.705Z,5.00
2019-05-18T20:53:56.419Z,3.95
2019-05-18T20:56:31.148Z,4.03
2019-05-18T20:59:01.206Z,3.77
2019-05-18T21:01:31.383Z,3.47
2019-05-18T21:04:01.433Z,3.98
2019-05-18T21:06:32.035Z,4.05
2019-05-18T21:09:10.367Z,3.00
2019-05-18T21:11:40.697Z,3.87
2019-05-18T21:14:12.062Z,4.70
2019-05-18T21:16:49.149Z,4.92
2019-05-18T21:19:23.108Z,4.83
2019-05-18T21:21:56.599Z,3.77
2019-05-18T21:24:30.167Z,5.03
2019-05-18T21:27:19.091Z,4.17
2019-05-18T21:29:51.843Z,3.80
2019-05-18T21:32:34.049Z,3.27
2019-05-18T21:35:07.007Z,4.45
2019-05-18T21:37:38.933Z,3.55
2019-05-18T21:40:11.858Z,3.70
2019-05-18T21:42:43.258Z,3.50
2019-05-18T21:45:15.617Z,3.40
2019-05-18T21:47:53.042Z,3.25
2019-05-18T21:50:25.854Z,3.77
2019-05-18T21:53:02.309Z,4.03
2019-05-18T21:55:34.009Z,4.15
2019-05-18T21:58:06.242Z,2.90
2019-05-18T22:00:37.172Z,4.83
2019-05-18T22:03:07.119Z,5.17
2019-05-18T22:05:38.738Z,3.27
2019-05-18T22:08:12.216Z,3.75
2019-05-18T22:10:48.529Z,3.83
2019-05-18T22:13:18.623Z,3.90
2019-05-18T22:15:56.863Z,4.53
2019-05-18T22:18:30.401Z,6.25
2019-05-18T22:21:05.131Z,6.40
2019-05-18T22:23:39.663Z,7.92
2019-05-18T22:26:11.059Z,8.28
2019-05-18T22:28:41.358Z,8.08
2019-05-18T22:31:13.440Z,9.13
2019-05-18T22:33:45.092Z,8.50
2019-05-18T22:36:15.454Z,8.85
2019-05-18T22:38:51.582Z,8.00
2019-05-18T22:41:28.900Z,6.80
2019-05-18T22:44:17.212Z,6.95
2019-05-18T22:46:35.484Z,6.95
2019-05-18T22:49:09.676Z,4.95
2019-05-18T22:51:42.324Z,6.21
2019-05-18T22:54:15.484Z,6.00
2019-05-18T22:56:50.848Z,5.00
2019-05-18T22:59:24.137Z,4.80
2019-05-18T23:01:56.736Z,4.30
2019-05-18T23:04:32.258Z,5.53
2019-05-18T23:07:02.454Z,5.03
2019-05-18T23:09:46.129Z,5.58
2019-05-18T23:12:20.423Z,5.47
2019-05-18T23:14:52.283Z,6.22
2019-05-18T23:17:27.045Z,6.28
2019-05-18T23:20:03.617Z,6.50
2019-05-18T23:22:37.040Z,7.62
2019-05-18T23:27:58.086Z,6.62
2019-05-18T23:30:30.907Z,9.20
2019-05-18T23:33:04.792Z,9.23
2019-05-18T23:35:39.024Z,11.93
2019-05-18T23:38:16.457Z,13.72
2019-05-18T23:40:53.533Z,16.77
2019-05-18T23:43:29.136Z,16.60
2019-05-18T23:46:04.354Z,18.85
2019-05-18T23:48:40.390Z,23.20
2019-05-18T23:53:36.889Z,20.37
2019-05-18T23:56:09.647Z,19.12
2019-05-18T23:58:40.665Z,16.15
